createdAt,value
2018-12-31T00:00:24.452Z,39.21
2018-12-31T00:01:24.460Z,38.90
2018-12-31T00:02:24.416Z,39.03
2018-12-31T00:03:24.427Z,39.93
2018-12-31T00:04:24.412Z,40.23
2018-12-31T00:05:24.382Z,39.62
2018-12-31T00:06:24.388Z,39.91
2018-12-31T00:07:24.371Z,40.33
2018-12-31T00:08:24.410Z,40.03
2018-12-31T00:09:24.348Z,39.93
2018-12-31T00:10:24.334Z,40.51
2018-12-31T00:11:24.326Z,40.43
2018-12-31T00:12:24.311Z,40.43
2018-12-31T00:13:24.304Z,40.21
2018-12-31T00:14:24.302Z,39.93
2018-12-31T00:15:24.304Z,39.83
2018-12-31T00:16:24.271Z,40.01
2018-12-31T00:17:24.247Z,38.81
2018-12-31T00:18:24.266Z,39.31
2018-12-31T00:19:24.230Z,39.21
2018-12-31T00:20:24.217Z,38.90
2018-12-31T00:21:24.213Z,39.01
2018-12-31T00:22:24.248Z,39.31
2018-12-31T00:23:24.210Z,38.90
2018-12-31T00:24:24.194Z,39.01
2018-12-31T00:25:24.193Z,39.01
2018-12-31T00:26:24.192Z,39.71
2018-12-31T00:27:24.137Z,39.51
2018-12-31T00:28:24.169Z,39.91
2018-12-31T00:29:24.118Z,40.31
2018-12-31T00:30:24.104Z,40.11
2018-12-31T00:31:24.110Z,40.01
2018-12-31T00:32:24.124Z,41.01
2018-12-31T00:33:24.075Z,41.01
2018-12-31T00:34:24.059Z,40.41
2018-12-31T00:35:24.048Z,40.41
2018-12-31T00:36:24.044Z,40.11
2018-12-31T00:37:24.050Z,40.23
2018-12-31T00:38:24.015Z,39.91
2018-12-31T00:39:24.007Z,39.91
2018-12-31T00:40:23.998Z,39.51
2018-12-31T00:41:23.995Z,40.21
2018-12-31T00:42:23.979Z,40.11
2018-12-31T00:43:23.997Z,39.81
2018-12-31T00:44:23.947Z,40.13
2018-12-31T00:45:23.936Z,40.21
2018-12-31T00:46:23.936Z,40.33
2018-12-31T00:47:23.927Z,39.91
2018-12-31T00:48:23.907Z,40.81
2018-12-31T00:49:23.907Z,40.71
2018-12-31T00:50:23.911Z,40.21
2018-12-31T00:51:23.905Z,40.63
2018-12-31T00:52:23.865Z,40.81
2018-12-31T00:53:23.859Z,40.83
2018-12-31T00:54:23.856Z,40.51
2018-12-31T00:55:23.845Z,40.63
2018-12-31T00:56:23.836Z,40.51
2018-12-31T00:57:23.809Z,40.53
2018-12-31T00:58:23.809Z,40.81
2018-12-31T00:59:23.852Z,40.41
2018-12-31T01:00:23.858Z,40.31
2018-12-31T01:01:23.786Z,40.21
2018-12-31T01:02:23.772Z,40.21
2018-12-31T01:03:24.521Z,40.21
2018-12-31T01:04:23.756Z,40.11
2018-12-31T01:05:23.724Z,39.91
2018-12-31T01:06:23.745Z,40.41
2018-12-31T01:07:23.702Z,40.01
2018-12-31T01:08:23.699Z,39.91
2018-12-31T01:09:23.670Z,39.91
2018-12-31T01:10:23.662Z,40.31
2018-12-31T01:11:23.664Z,40.41
2018-12-31T01:12:23.647Z,40.21
2018-12-31T01:13:23.626Z,40.11
2018-12-31T01:14:23.615Z,40.11
2018-12-31T01:15:23.606Z,40.41
2018-12-31T01:16:23.606Z,40.31
2018-12-31T01:17:23.616Z,40.61
2018-12-31T01:18:23.582Z,40.71
2018-12-31T01:19:23.598Z,40.71
2018-12-31T01:20:23.558Z,40.51
2018-12-31T01:21:23.545Z,41.01
2018-12-31T01:22:23.608Z,40.91
2018-12-31T01:23:23.528Z,41.01
2018-12-31T01:24:23.521Z,40.31
2018-12-31T01:25:23.505Z,40.41
2018-12-31T01:26:23.481Z,40.21
2018-12-31T01:27:23.494Z,40.21
2018-12-31T01:28:23.460Z,40.71
2018-12-31T01:29:23.447Z,40.51
2018-12-31T01:30:23.448Z,40.31
2018-12-31T01:31:23.455Z,40.61
2018-12-31T01:32:23.425Z,40.31
2018-12-31T01:33:23.408Z,40.41
2018-12-31T01:34:23.391Z,40.61
2018-12-31T01:35:23.426Z,40.71
2018-12-31T01:36:23.380Z,40.73
2018-12-31T01:37:23.376Z,40.83
2018-12-31T01:38:23.371Z,40.61
2018-12-31T01:39:23.351Z,40.61
2018-12-31T01:40:23.352Z,40.71
2018-12-31T01:41:23.352Z,41.21
2018-12-31T01:42:23.351Z,40.51
2018-12-31T01:43:23.296Z,40.63
2018-12-31T01:44:23.284Z,40.51
2018-12-31T01:45:23.309Z,40.33
2018-12-31T01:46:23.263Z,40.31
2018-12-31T01:47:23.260Z,40.53
2018-12-31T01:48:23.238Z,40.33
2018-12-31T01:49:23.241Z,40.63
2018-12-31T01:50:23.235Z,40.71
2018-12-31T01:51:23.224Z,40.91
2018-12-31T01:52:23.246Z,41.01
2018-12-31T01:53:23.181Z,40.91
2018-12-31T01:54:23.171Z,40.91
2018-12-31T01:55:23.186Z,40.51
2018-12-31T01:56:23.147Z,40.51
2018-12-31T01:57:23.145Z,40.51
2018-12-31T01:58:23.125Z,40.51
2018-12-31T01:59:23.115Z,40.21
2018-12-31T02:00:23.118Z,40.41
2018-12-31T02:01:23.097Z,40.61
2018-12-31T02:02:23.092Z,40.91
2018-12-31T02:03:23.073Z,40.71
2018-12-31T02:04:23.060Z,40.71
2018-12-31T02:05:23.051Z,40.31
2018-12-31T02:06:23.037Z,40.81
2018-12-31T02:07:23.049Z,40.51
2018-12-31T02:08:23.118Z,40.21
2018-12-31T02:09:23.021Z,40.61
2018-12-31T02:10:23.016Z,40.51
2018-12-31T02:11:23.016Z,40.51
2018-12-31T02:12:22.994Z,41.31
2018-12-31T02:13:22.987Z,40.31
2018-12-31T02:14:22.960Z,40.41
2018-12-31T02:15:22.951Z,41.21
2018-12-31T02:16:22.927Z,40.41
2018-12-31T02:17:22.934Z,40.91
2018-12-31T02:18:22.914Z,40.81
2018-12-31T02:19:22.895Z,40.91
2018-12-31T02:20:22.918Z,40.91
2018-12-31T02:21:22.882Z,40.71
2018-12-31T02:22:22.862Z,40.91
2018-12-31T02:23:22.868Z,41.01
2018-12-31T02:24:22.844Z,41.11
2018-12-31T02:25:22.833Z,40.51
2018-12-31T02:26:22.834Z,40.41
2018-12-31T02:27:22.833Z,40.71
2018-12-31T02:28:22.804Z,40.91
2018-12-31T02:29:22.783Z,41.11
2018-12-31T02:30:22.771Z,41.11
2018-12-31T02:31:22.767Z,40.81
2018-12-31T02:32:22.750Z,41.01
2018-12-31T02:33:22.799Z,40.91
2018-12-31T02:34:22.725Z,41.11
2018-12-31T02:35:22.719Z,40.81
2018-12-31T02:36:22.709Z,41.11
2018-12-31T02:37:22.694Z,41.21
2018-12-31T02:38:22.693Z,40.71
2018-12-31T02:39:22.699Z,40.51
2018-12-31T02:40:22.666Z,40.31
2018-12-31T02:41:22.651Z,40.71
2018-12-31T02:42:22.645Z,40.31
2018-12-31T02:43:22.644Z,40.41
2018-12-31T02:44:22.617Z,40.41
2018-12-31T02:45:22.629Z,40.41
2018-12-31T02:46:22.593Z,40.41
2018-12-31T02:47:22.583Z,40.41
2018-12-31T02:48:22.581Z,40.61
2018-12-31T02:49:22.560Z,41.11
2018-12-31T02:50:22.557Z,41.31
2018-12-31T02:51:22.542Z,40.61
2018-12-31T02:52:22.542Z,40.91
2018-12-31T02:53:22.529Z,41.31
2018-12-31T02:54:22.522Z,40.91
2018-12-31T02:55:22.501Z,40.91
2018-12-31T02:56:22.484Z,41.41
2018-12-31T02:57:22.474Z,41.41
2018-12-31T02:58:22.481Z,40.81
2018-12-31T02:59:22.455Z,40.91
2018-12-31T03:00:22.439Z,40.91
2018-12-31T03:01:22.434Z,41.41
2018-12-31T03:02:22.420Z,41.41
2018-12-31T03:03:22.440Z,41.21
2018-12-31T03:04:22.399Z,40.81
2018-12-31T03:05:22.412Z,40.31
2018-12-31T03:06:22.372Z,40.41
2018-12-31T03:07:22.364Z,40.51
2018-12-31T03:08:22.356Z,40.51
2018-12-31T03:09:22.353Z,40.61
2018-12-31T03:10:22.331Z,40.91
2018-12-31T03:11:22.327Z,41.41
2018-12-31T03:12:22.322Z,40.71
2018-12-31T03:13:22.319Z,40.81
2018-12-31T03:14:22.353Z,41.11
2018-12-31T03:15:22.272Z,40.71
2018-12-31T03:16:22.263Z,40.81
2018-12-31T03:17:22.263Z,40.61
2018-12-31T03:18:22.242Z,40.73
2018-12-31T03:19:22.240Z,40.61
2018-12-31T03:20:22.221Z,40.51
2018-12-31T03:21:22.228Z,40.51
2018-12-31T03:22:22.212Z,41.51
2018-12-31T03:23:22.199Z,40.61
2018-12-31T03:24:22.224Z,40.51
2018-12-31T03:25:22.161Z,40.81
2018-12-31T03:26:22.154Z,40.81
2018-12-31T03:27:22.143Z,41.01
2018-12-31T03:28:22.142Z,40.91
2018-12-31T03:29:22.129Z,40.91
2018-12-31T03:30:22.156Z,41.31
2018-12-31T03:31:22.141Z,41.31
2018-12-31T03:32:22.085Z,40.71
2018-12-31T03:33:22.073Z,41.21
2018-12-31T03:34:22.070Z,41.11
2018-12-31T03:35:22.051Z,40.91
2018-12-31T03:36:22.040Z,40.91
2018-12-31T03:37:22.042Z,41.11
2018-12-31T03:38:22.020Z,40.61
2018-12-31T03:39:22.065Z,40.71
2018-12-31T03:40:22.002Z,40.51
2018-12-31T03:41:21.986Z,40.81
2018-12-31T03:42:21.976Z,40.81
2018-12-31T03:43:21.968Z,40.61
2018-12-31T03:44:21.987Z,40.81
2018-12-31T03:45:21.942Z,40.71
2018-12-31T03:46:21.932Z,40.71
2018-12-31T03:47:21.922Z,40.41
2018-12-31T03:48:21.909Z,41.01
2018-12-31T03:49:21.905Z,41.51
2018-12-31T03:50:21.895Z,40.71
2018-12-31T03:51:21.910Z,41.01
2018-12-31T03:52:21.868Z,40.71
2018-12-31T03:53:21.855Z,40.81
2018-12-31T03:54:21.851Z,40.81
2018-12-31T03:55:21.830Z,40.91
2018-12-31T03:56:21.847Z,40.81
2018-12-31T03:57:21.826Z,40.71
2018-12-31T03:58:21.819Z,41.21
2018-12-31T03:59:21.805Z,40.91
2018-12-31T04:00:21.773Z,40.91
2018-12-31T04:01:21.764Z,40.71
2018-12-31T04:02:21.753Z,41.61
2018-12-31T04:03:21.759Z,41.41
2018-12-31T04:04:21.764Z,41.71
2018-12-31T04:05:21.742Z,41.82
2018-12-31T04:06:21.713Z,41.71
2018-12-31T04:07:21.698Z,42.11
2018-12-31T04:08:21.696Z,42.11
2018-12-31T04:09:21.682Z,42.03
2018-12-31T04:10:21.687Z,42.11
2018-12-31T04:11:21.668Z,41.51
2018-12-31T04:12:21.649Z,41.91
2018-12-31T04:13:21.636Z,41.61
2018-12-31T04:14:21.668Z,41.82
2018-12-31T04:15:21.622Z,41.71
2018-12-31T04:16:21.605Z,41.21
2018-12-31T04:17:21.697Z,41.01
2018-12-31T04:18:21.577Z,40.41
2018-12-31T04:19:21.566Z,40.81
2018-12-31T04:20:21.562Z,40.71
2018-12-31T04:21:21.544Z,40.91
2018-12-31T04:22:21.545Z,40.81
2018-12-31T04:23:21.541Z,40.51
2018-12-31T04:24:21.510Z,40.61
2018-12-31T04:25:21.509Z,40.51
2018-12-31T04:26:21.492Z,41.51
2018-12-31T04:27:21.512Z,41.91
2018-12-31T04:28:21.471Z,41.41
2018-12-31T04:29:21.461Z,41.41
2018-12-31T04:30:21.455Z,42.02
2018-12-31T04:31:21.431Z,41.41
2018-12-31T04:32:21.447Z,41.51
2018-12-31T04:33:21.409Z,41.71
2018-12-31T04:34:21.436Z,41.82
2018-12-31T04:35:21.418Z,41.51
2018-12-31T04:36:21.376Z,41.51
2018-12-31T04:37:21.370Z,42.11
2018-12-31T04:38:21.358Z,41.91
2018-12-31T04:39:21.346Z,41.91
2018-12-31T04:40:21.362Z,41.71
2018-12-31T04:41:21.319Z,41.21
2018-12-31T04:42:21.308Z,41.21
2018-12-31T04:43:21.301Z,40.91
2018-12-31T04:44:21.294Z,40.81
2018-12-31T04:45:21.285Z,40.61
2018-12-31T04:46:21.282Z,40.71
2018-12-31T04:47:21.258Z,40.81
2018-12-31T04:48:21.244Z,40.41
2018-12-31T04:49:21.235Z,41.31
2018-12-31T04:50:21.229Z,41.41
2018-12-31T04:51:21.211Z,41.71
2018-12-31T04:52:21.207Z,41.51
2018-12-31T04:53:21.207Z,41.61
2018-12-31T04:54:21.182Z,42.02
2018-12-31T04:55:21.258Z,42.02
2018-12-31T04:56:21.192Z,41.82
2018-12-31T04:57:21.166Z,41.82
2018-12-31T04:58:23.325Z,41.82
2018-12-31T04:59:21.123Z,41.61
2018-12-31T05:00:21.131Z,41.71
2018-12-31T05:01:21.123Z,41.71
2018-12-31T05:02:21.097Z,41.61
2018-12-31T05:03:21.092Z,42.02
2018-12-31T05:04:22.147Z,41.61
2018-12-31T05:05:21.063Z,41.51
2018-12-31T05:06:21.065Z,41.91
2018-12-31T05:07:21.100Z,41.91
2018-12-31T05:08:21.030Z,41.71
2018-12-31T05:09:21.010Z,41.61
2018-12-31T05:10:21.048Z,41.21
2018-12-31T05:11:20.990Z,41.91
2018-12-31T05:12:20.981Z,41.51
2018-12-31T05:13:21.017Z,41.41
2018-12-31T05:14:20.978Z,42.21
2018-12-31T05:15:20.990Z,41.91
2018-12-31T05:16:20.933Z,41.71
2018-12-31T05:17:20.923Z,41.71
2018-12-31T05:18:20.913Z,41.61
2018-12-31T05:19:20.904Z,41.61
2018-12-31T05:20:20.940Z,42.11
2018-12-31T05:21:20.881Z,42.21
2018-12-31T05:22:20.920Z,42.32
2018-12-31T05:23:20.895Z,42.32
2018-12-31T05:24:20.846Z,41.91
2018-12-31T05:25:20.845Z,41.71
2018-12-31T05:26:20.833Z,41.61
2018-12-31T05:27:20.837Z,42.02
2018-12-31T05:28:20.803Z,41.71
2018-12-31T05:29:20.833Z,41.91
2018-12-31T05:30:20.793Z,41.41
2018-12-31T05:31:20.773Z,41.61
2018-12-31T05:32:20.787Z,41.11
2018-12-31T05:33:20.778Z,41.41
2018-12-31T05:34:20.744Z,41.51
2018-12-31T05:35:20.769Z,41.31
2018-12-31T05:36:20.719Z,41.91
2018-12-31T05:37:20.716Z,42.02
2018-12-31T05:38:20.698Z,42.11
2018-12-31T05:39:20.787Z,41.91
2018-12-31T05:40:20.672Z,41.51
2018-12-31T05:41:20.669Z,42.21
2018-12-31T05:42:20.680Z,41.82
2018-12-31T05:43:20.635Z,42.32
2018-12-31T05:44:20.632Z,42.02
2018-12-31T05:45:20.639Z,42.02
2018-12-31T05:46:20.615Z,42.02
2018-12-31T05:47:20.593Z,42.02
2018-12-31T05:48:20.582Z,41.82
2018-12-31T05:49:20.593Z,42.11
2018-12-31T05:50:20.589Z,42.02
2018-12-31T05:51:20.576Z,41.82
2018-12-31T05:52:20.555Z,41.51
2018-12-31T05:53:20.537Z,42.21
2018-12-31T05:54:20.514Z,42.32
2018-12-31T05:55:20.506Z,42.21
2018-12-31T05:56:20.524Z,42.21
2018-12-31T05:57:20.484Z,41.61
2018-12-31T05:58:20.512Z,41.82
2018-12-31T05:59:20.473Z,41.71
2018-12-31T06:00:20.458Z,42.21
2018-12-31T06:01:20.473Z,41.91
2018-12-31T06:02:20.460Z,41.91
2018-12-31T06:03:20.423Z,42.32
2018-12-31T06:04:20.417Z,42.21
2018-12-31T06:05:20.423Z,42.11
2018-12-31T06:06:20.407Z,42.02
2018-12-31T06:07:20.417Z,42.02
2018-12-31T06:08:20.363Z,41.82
2018-12-31T06:09:20.378Z,42.11
2018-12-31T06:10:20.342Z,41.91
2018-12-31T06:11:20.341Z,42.21
2018-12-31T06:12:20.350Z,41.91
2018-12-31T06:13:20.322Z,42.02
2018-12-31T06:14:20.301Z,42.02
2018-12-31T06:15:20.282Z,41.51
2018-12-31T06:16:20.290Z,41.61
2018-12-31T06:17:20.290Z,41.82
2018-12-31T06:18:20.248Z,42.02
2018-12-31T06:19:20.242Z,42.21
2018-12-31T06:20:20.235Z,42.10
2018-12-31T06:21:20.290Z,41.60
2018-12-31T06:22:20.209Z,41.69
2018-12-31T06:23:20.196Z,42.10
2018-12-31T06:24:20.182Z,41.60
2018-12-31T06:25:20.176Z,41.60
2018-12-31T06:26:20.192Z,41.49
2018-12-31T06:27:20.203Z,41.99
2018-12-31T06:28:20.138Z,41.99
2018-12-31T06:29:20.128Z,41.99
2018-12-31T06:30:20.119Z,42.21
2018-12-31T06:31:20.118Z,42.21
2018-12-31T06:32:20.163Z,41.69
2018-12-31T06:33:20.085Z,42.21
2018-12-31T06:34:20.096Z,42.02
2018-12-31T06:35:20.088Z,41.82
2018-12-31T06:36:20.061Z,42.02
2018-12-31T06:37:20.051Z,41.91
2018-12-31T06:38:20.030Z,42.02
2018-12-31T06:39:20.044Z,42.32
2018-12-31T06:40:20.011Z,42.02
2018-12-31T06:41:19.995Z,41.71
2018-12-31T06:42:20.014Z,42.11
2018-12-31T06:43:19.977Z,41.82
2018-12-31T06:44:19.971Z,41.61
2018-12-31T06:45:19.955Z,41.82
2018-12-31T06:46:19.939Z,41.69
2018-12-31T06:47:19.943Z,41.91
2018-12-31T06:48:19.936Z,41.51
2018-12-31T06:49:19.912Z,41.89
2018-12-31T06:50:19.905Z,42.11
2018-12-31T06:51:19.886Z,41.91
2018-12-31T06:52:19.880Z,41.82
2018-12-31T06:53:19.866Z,41.91
2018-12-31T06:54:19.878Z,41.89
2018-12-31T06:55:19.845Z,41.71
2018-12-31T06:56:19.831Z,41.91
2018-12-31T06:57:19.827Z,42.32
2018-12-31T06:58:19.887Z,42.41
2018-12-31T06:59:19.796Z,42.21
2018-12-31T07:00:19.812Z,42.41
2018-12-31T07:01:19.803Z,42.61
2018-12-31T07:02:19.777Z,42.41
2018-12-31T07:03:19.764Z,42.30
2018-12-31T07:04:19.815Z,42.21
2018-12-31T07:05:19.730Z,42.10
2018-12-31T07:06:19.718Z,42.19
2018-12-31T07:07:19.719Z,42.60
2018-12-31T07:08:19.716Z,42.10
2018-12-31T07:09:19.695Z,41.79
2018-12-31T07:10:19.685Z,41.79
2018-12-31T07:11:19.663Z,41.89
2018-12-31T07:12:19.679Z,41.99
2018-12-31T07:13:19.645Z,42.10
2018-12-31T07:14:19.637Z,41.99
2018-12-31T07:15:19.843Z,41.99
2018-12-31T07:16:19.646Z,41.99
2018-12-31T07:17:19.641Z,42.18
2018-12-31T07:18:19.606Z,41.88
2018-12-31T07:19:19.578Z,41.88
2018-12-31T07:20:19.569Z,41.89
2018-12-31T07:21:19.556Z,41.88
2018-12-31T07:22:19.557Z,41.88
2018-12-31T07:23:19.552Z,42.07
2018-12-31T07:24:19.518Z,41.97
2018-12-31T07:25:19.529Z,41.47
2018-12-31T07:26:19.499Z,41.57
2018-12-31T07:27:19.488Z,41.57
2018-12-31T07:28:19.484Z,41.57
2018-12-31T07:29:19.465Z,42.07
2018-12-31T07:30:19.468Z,41.57
2018-12-31T07:31:19.444Z,42.07
2018-12-31T07:32:19.434Z,41.67
2018-12-31T07:33:19.428Z,41.27
2018-12-31T07:34:19.414Z,41.67
2018-12-31T07:35:19.421Z,41.47
2018-12-31T07:36:19.409Z,41.57
2018-12-31T07:37:19.415Z,41.77
2018-12-31T07:38:19.381Z,41.97
2018-12-31T07:39:19.358Z,41.88
2018-12-31T07:40:19.343Z,41.97
2018-12-31T07:41:19.337Z,41.77
2018-12-31T07:42:19.329Z,41.67
2018-12-31T07:43:19.336Z,41.57
2018-12-31T07:44:19.303Z,41.97
2018-12-31T07:45:19.288Z,42.07
2018-12-31T07:46:19.277Z,41.57
2018-12-31T07:47:19.268Z,42.07
2018-12-31T07:48:19.268Z,42.07
2018-12-31T07:49:19.261Z,42.07
2018-12-31T07:50:19.272Z,41.77
2018-12-31T07:51:19.226Z,41.57
2018-12-31T07:52:19.216Z,42.07
2018-12-31T07:53:19.207Z,41.57
2018-12-31T07:54:19.628Z,42.07
2018-12-31T07:55:19.191Z,42.07
2018-12-31T07:56:19.180Z,41.57
2018-12-31T07:57:19.184Z,41.57
2018-12-31T07:58:19.165Z,42.18
2018-12-31T07:59:19.135Z,42.07
2018-12-31T08:00:19.127Z,41.57
2018-12-31T08:01:19.229Z,41.97
2018-12-31T08:02:19.111Z,42.07
2018-12-31T08:03:19.107Z,41.67
2018-12-31T08:04:19.077Z,42.38
2018-12-31T08:05:19.110Z,41.88
2018-12-31T08:06:19.056Z,41.97
2018-12-31T08:07:19.046Z,42.07
2018-12-31T08:08:19.151Z,41.88
2018-12-31T08:09:19.025Z,41.88
2018-12-31T08:10:19.016Z,41.97
2018-12-31T08:11:19.035Z,41.97
2018-12-31T08:12:18.994Z,42.07
2018-12-31T08:13:18.983Z,41.47
2018-12-31T08:14:18.985Z,41.97
2018-12-31T08:15:18.965Z,41.49
2018-12-31T08:16:19.065Z,41.47
2018-12-31T08:17:18.932Z,41.47
2018-12-31T08:18:18.928Z,42.07
2018-12-31T08:19:18.927Z,41.88
2018-12-31T08:20:18.985Z,41.89
2018-12-31T08:21:18.891Z,41.77
2018-12-31T08:22:18.891Z,41.97
2018-12-31T08:23:18.888Z,41.99
2018-12-31T08:24:18.866Z,42.30
2018-12-31T08:25:18.851Z,42.18
2018-12-31T08:26:18.867Z,42.30
2018-12-31T08:27:18.829Z,42.07
2018-12-31T08:28:18.826Z,41.49
2018-12-31T08:29:18.823Z,41.77
2018-12-31T08:30:18.993Z,41.79
2018-12-31T08:31:18.815Z,42.10
2018-12-31T08:32:18.772Z,41.89
2018-12-31T08:33:18.767Z,42.10
2018-12-31T08:34:18.760Z,41.88
2018-12-31T08:35:18.739Z,42.60
2018-12-31T08:36:18.730Z,42.57
2018-12-31T08:37:18.740Z,42.18
2018-12-31T08:38:18.710Z,42.38
2018-12-31T08:39:18.702Z,42.19
2018-12-31T08:40:18.682Z,42.27
2018-12-31T08:41:18.675Z,42.30
2018-12-31T08:42:18.667Z,42.49
2018-12-31T08:43:18.690Z,42.49
2018-12-31T08:44:18.644Z,41.88
2018-12-31T08:45:18.705Z,41.79
2018-12-31T08:46:18.625Z,42.07
2018-12-31T08:47:18.621Z,41.49
2018-12-31T08:48:18.607Z,41.88
2018-12-31T08:49:18.619Z,41.89
2018-12-31T08:50:18.569Z,41.97
2018-12-31T08:51:18.567Z,42.10
2018-12-31T08:52:18.550Z,41.97
2018-12-31T08:53:18.773Z,42.18
2018-12-31T08:54:18.552Z,42.27
2018-12-31T08:55:18.519Z,42.57
2018-12-31T08:56:18.557Z,42.27
2018-12-31T08:57:18.516Z,42.27
2018-12-31T08:58:18.567Z,42.47
2018-12-31T08:59:18.479Z,42.30
2018-12-31T09:00:18.513Z,42.10
2018-12-31T09:01:18.492Z,42.38
2018-12-31T09:02:18.448Z,42.18
2018-12-31T09:03:18.465Z,42.38
2018-12-31T09:04:18.466Z,42.47
2018-12-31T09:05:18.417Z,42.38
2018-12-31T09:06:18.396Z,42.19
2018-12-31T09:07:18.384Z,42.18
2018-12-31T09:08:18.371Z,42.60
2018-12-31T09:09:18.390Z,42.30
2018-12-31T09:10:18.368Z,41.67
2018-12-31T09:11:18.338Z,41.49
2018-12-31T09:12:18.325Z,41.99
2018-12-31T09:13:18.321Z,41.77
2018-12-31T09:14:18.313Z,41.88
2018-12-31T09:15:18.360Z,41.97
2018-12-31T09:16:18.284Z,41.88
2018-12-31T09:17:18.271Z,41.69
2018-12-31T09:18:18.261Z,41.47
2018-12-31T09:19:18.272Z,41.69
2018-12-31T09:20:18.255Z,41.69
2018-12-31T09:21:18.243Z,41.57
2018-12-31T09:22:18.229Z,41.69
2018-12-31T09:23:18.247Z,41.89
2018-12-31T09:24:18.202Z,41.88
2018-12-31T09:25:18.207Z,41.89
2018-12-31T09:26:18.179Z,41.57
2018-12-31T09:27:18.166Z,42.38
2018-12-31T09:28:18.150Z,42.60
2018-12-31T09:29:18.204Z,41.88
2018-12-31T09:30:18.149Z,41.79
2018-12-31T09:31:18.116Z,41.69
2018-12-31T09:32:18.106Z,41.67
2018-12-31T09:33:18.099Z,41.88
2018-12-31T09:34:18.083Z,41.88
2018-12-31T09:35:18.101Z,41.99
2018-12-31T09:36:18.068Z,42.07
2018-12-31T09:37:18.151Z,41.89
2018-12-31T09:38:18.072Z,41.97
2018-12-31T09:39:18.041Z,42.27
2018-12-31T09:40:18.057Z,41.89
2018-12-31T09:41:18.033Z,42.30
2018-12-31T09:42:18.044Z,42.07
2018-12-31T09:43:17.987Z,42.10
2018-12-31T09:44:17.978Z,42.27
2018-12-31T09:45:17.978Z,41.97
2018-12-31T09:46:17.962Z,41.97
2018-12-31T09:47:17.989Z,41.88
2018-12-31T09:48:17.954Z,41.89
2018-12-31T09:49:17.936Z,42.10
2018-12-31T09:50:17.938Z,42.10
2018-12-31T09:51:17.911Z,41.97
2018-12-31T09:52:17.892Z,41.99
2018-12-31T09:53:17.885Z,41.89
2018-12-31T09:54:17.912Z,42.10
2018-12-31T09:55:17.864Z,42.07
2018-12-31T09:56:17.843Z,41.97
2018-12-31T09:57:17.983Z,41.67
2018-12-31T09:58:17.820Z,41.47
2018-12-31T09:59:17.824Z,41.57
2018-12-31T10:00:17.805Z,41.57
2018-12-31T10:01:17.786Z,41.47
2018-12-31T10:02:17.791Z,41.49
2018-12-31T10:03:17.831Z,41.88
2018-12-31T10:04:17.757Z,42.18
2018-12-31T10:05:17.760Z,42.07
2018-12-31T10:06:17.738Z,41.79
2018-12-31T10:07:17.732Z,41.79
2018-12-31T10:08:17.713Z,41.77
2018-12-31T10:09:17.716Z,41.99
2018-12-31T10:10:17.711Z,41.99
2018-12-31T10:11:17.693Z,41.99
2018-12-31T10:12:17.774Z,41.97
2018-12-31T10:13:17.651Z,42.10
2018-12-31T10:14:17.650Z,41.77
2018-12-31T10:15:17.684Z,41.69
2018-12-31T10:16:17.718Z,41.69
2018-12-31T10:17:17.614Z,41.99
2018-12-31T10:18:17.597Z,41.79
2018-12-31T10:19:17.658Z,41.99
2018-12-31T10:20:17.573Z,41.77
2018-12-31T10:21:17.584Z,41.99
2018-12-31T10:22:17.558Z,41.97
2018-12-31T10:23:17.542Z,42.47
2018-12-31T10:24:17.557Z,41.97
2018-12-31T10:25:17.586Z,41.88
2018-12-31T10:26:17.516Z,42.10
2018-12-31T10:27:17.499Z,41.67
2018-12-31T10:28:17.490Z,42.07
2018-12-31T10:29:17.541Z,41.97
2018-12-31T10:30:17.478Z,42.10
2018-12-31T10:31:17.467Z,41.97
2018-12-31T10:32:17.457Z,42.30
2018-12-31T10:33:17.433Z,42.10
2018-12-31T10:34:17.430Z,41.88
2018-12-31T10:35:17.445Z,42.10
2018-12-31T10:36:17.422Z,42.10
2018-12-31T10:37:17.408Z,41.88
2018-12-31T10:38:17.420Z,41.99
2018-12-31T10:39:17.374Z,42.07
2018-12-31T10:40:17.374Z,41.89
2018-12-31T10:41:17.392Z,42.07
2018-12-31T10:42:17.357Z,41.99
2018-12-31T10:43:17.370Z,41.77
2018-12-31T10:44:17.313Z,41.99
2018-12-31T10:45:17.331Z,41.88
2018-12-31T10:46:17.357Z,42.49
2018-12-31T10:47:17.281Z,41.89
2018-12-31T10:48:17.307Z,41.89
2018-12-31T10:49:17.259Z,41.47
2018-12-31T10:50:17.246Z,41.88
2018-12-31T10:51:17.266Z,41.88
2018-12-31T10:52:17.225Z,42.49
2018-12-31T10:53:17.222Z,41.88
2018-12-31T10:54:17.201Z,42.10
2018-12-31T10:55:17.190Z,41.99
2018-12-31T10:56:17.197Z,42.07
2018-12-31T10:57:17.925Z,41.97
2018-12-31T10:58:17.174Z,41.57
2018-12-31T10:59:17.158Z,41.69
2018-12-31T11:00:17.147Z,42.30
2018-12-31T11:01:17.135Z,42.38
2018-12-31T11:02:17.115Z,42.27
2018-12-31T11:03:17.098Z,42.40
2018-12-31T11:04:17.097Z,42.19
2018-12-31T11:05:17.077Z,42.99
2018-12-31T11:06:17.103Z,42.30
2018-12-31T11:07:17.072Z,42.18
2018-12-31T11:08:17.050Z,42.18
2018-12-31T11:09:17.033Z,42.30
2018-12-31T11:10:17.067Z,42.47
2018-12-31T11:11:17.019Z,42.57
2018-12-31T11:12:17.037Z,42.19
2018-12-31T11:13:17.006Z,42.27
2018-12-31T11:14:16.981Z,41.89
2018-12-31T11:15:16.974Z,41.79
2018-12-31T11:16:16.973Z,41.88
2018-12-31T11:17:16.948Z,41.57
2018-12-31T11:18:16.944Z,41.77
2018-12-31T11:19:16.950Z,42.27
2018-12-31T11:20:16.936Z,42.07
2018-12-31T11:21:16.910Z,42.47
2018-12-31T11:22:16.889Z,42.07
2018-12-31T11:23:16.880Z,42.49
2018-12-31T11:24:16.872Z,42.27
2018-12-31T11:25:16.869Z,42.27
2018-12-31T11:26:16.889Z,42.30
2018-12-31T11:27:16.843Z,42.80
2018-12-31T11:28:16.826Z,42.60
2018-12-31T11:29:16.824Z,42.69
2018-12-31T11:30:16.805Z,42.47
2018-12-31T11:31:16.808Z,42.47
2018-12-31T11:32:16.801Z,42.47
2018-12-31T11:33:16.773Z,42.47
2018-12-31T11:34:16.758Z,42.40
2018-12-31T11:35:16.748Z,42.19
2018-12-31T11:36:16.747Z,42.97
2018-12-31T11:37:16.737Z,42.19
2018-12-31T11:38:16.727Z,42.07
2018-12-31T11:39:16.800Z,42.57
2018-12-31T11:40:16.704Z,42.57
2018-12-31T11:41:16.719Z,42.60
2018-12-31T11:42:16.798Z,42.47
2018-12-31T11:43:16.658Z,42.47
2018-12-31T11:44:16.703Z,42.69
2018-12-31T11:45:16.652Z,42.69
2018-12-31T11:46:16.644Z,42.99
2018-12-31T11:47:16.617Z,42.80
2018-12-31T11:48:16.608Z,42.60
2018-12-31T11:49:16.628Z,42.60
2018-12-31T11:50:16.594Z,42.68
2018-12-31T11:51:16.580Z,42.80
2018-12-31T11:52:16.581Z,42.57
2018-12-31T11:53:16.551Z,42.80
2018-12-31T11:54:16.539Z,42.60
2018-12-31T11:55:16.530Z,42.57
2018-12-31T11:56:16.533Z,42.47
2018-12-31T11:57:16.514Z,42.47
2018-12-31T11:58:16.499Z,42.60
2018-12-31T11:59:16.496Z,42.47
2018-12-31T12:00:16.474Z,42.68
2018-12-31T12:01:16.476Z,42.68
2018-12-31T12:02:23.350Z,42.49
2018-12-31T12:03:17.438Z,42.49
2018-12-31T12:04:16.462Z,42.69
2018-12-31T12:05:16.499Z,42.68
2018-12-31T12:06:16.420Z,42.68
2018-12-31T12:07:16.449Z,42.97
2018-12-31T12:08:16.383Z,42.88
2018-12-31T12:09:16.372Z,42.38
2018-12-31T12:10:21.060Z,42.57
2018-12-31T12:11:16.372Z,42.57
2018-12-31T12:12:16.341Z,42.57
2018-12-31T12:13:16.376Z,42.57
2018-12-31T12:14:16.333Z,42.57
2018-12-31T12:15:16.305Z,42.47
2018-12-31T12:16:16.739Z,42.57
2018-12-31T12:17:16.284Z,42.38
2018-12-31T12:18:16.270Z,42.05
2018-12-31T12:19:16.288Z,42.35
2018-12-31T12:20:16.254Z,42.47
2018-12-31T12:21:16.415Z,42.05
2018-12-31T12:22:16.233Z,41.75
2018-12-31T12:23:16.220Z,41.85
2018-12-31T12:24:16.222Z,41.96
2018-12-31T12:25:16.213Z,41.96
2018-12-31T12:26:16.198Z,41.85
2018-12-31T12:27:16.172Z,42.05
2018-12-31T12:28:16.217Z,41.93
2018-12-31T12:29:16.153Z,41.75
2018-12-31T12:30:16.143Z,41.85
2018-12-31T12:31:16.154Z,41.83
2018-12-31T12:32:16.164Z,42.03
2018-12-31T12:33:16.109Z,41.74
2018-12-31T12:34:16.106Z,41.85
2018-12-31T12:35:16.103Z,41.75
2018-12-31T12:36:16.075Z,41.85
2018-12-31T12:37:16.073Z,41.85
2018-12-31T12:38:16.060Z,42.05
2018-12-31T12:39:16.064Z,41.85
2018-12-31T12:40:16.034Z,41.85
2018-12-31T12:41:16.030Z,42.03
2018-12-31T12:42:16.039Z,42.05
2018-12-31T12:43:16.009Z,41.93
2018-12-31T12:44:15.985Z,41.93
2018-12-31T12:45:15.996Z,41.96
2018-12-31T12:46:15.964Z,42.13
2018-12-31T12:47:15.958Z,41.96
2018-12-31T12:48:15.947Z,41.85
2018-12-31T12:49:15.936Z,41.74
2018-12-31T12:50:15.990Z,41.53
2018-12-31T12:51:15.907Z,41.53
2018-12-31T12:52:15.915Z,41.83